Portada
Imágenes satélite Pronóstico 10 díasClimaPredicción Marítima Ciclones Rayo AeropuertosFAQ Noticias Acerca
El tiempo : Europa África América del Norte América del Sur Asia Australia-Oceanía Otros
Idiomas Contacto

Chichén Itzá, México

Aeropuerto Internacional de Kaua

latitud: 20-38-30N, longitud: 088-26-58W, altitud: 31 m


METAR: MMCT 302041Z 06020KT 1SM RA VV005 27/23 A2994 RMK 8//// MSGTX MMMD
TAF: falta

Hora: 17:27 (22:27 UTC)

Observación

El informe se hizo hace 1 hora y 46 minutos, a las 20:41 UTC
Viento 20 kt del este-noreste
Temperatura 27°C
Humedad 79%
Presión 1014 hPa
Visibilidad: 1.6 km
lluvia

Cambiar las unidades
La información que se ofrece en estas páginas está sujeta a una cláusula de exención de responsabilidad
El tiempo : Europa África América del Norte América del Sur Asia Australia-Oceanía Otros
Imágenes satélite Pronóstico 10 díasClimaPredicción Marítima Ciclones Rayo AeropuertosFAQ Idiomas Contacto Noticias Acerca